logo
Search for airport 
image banner adimage banner adimage banner ad
image banner ad

YWMY - Williambury Airport

Located in Minilya, Australia

ICAO - YWMY, IATA -

Data provided by Airmate  

General information

Coordinates: S23°51'24" E115°8'34"
Elevation is 653 feet MSL.
Magnetic variation is 0° East
View others Airports in Western Australia

Operational data

Special qualification required
Current time UTC:
Current local time:
Weather at : - ( 0 km )
METAR: KEFD 141754Z 18004KT 10SM SCT030 BKN040 33/23 A3013
View NOTAMs / SUP AIP / TFR affecting this airport [VIEW]
Communications frequencies: [VIEW]

Runways:

RWY identifierQFULength (ft)Width (ft)SurfaceLDA (ft)
11111°187568DIRT
29291°187568DIRT
23230°294178DIRT
0550°294178DIRT
35350°133756DIRT
17170°133756DIRT

Airport contact information

Address: Minilya Australia

Satellite view of YWMY